Aviation Digital Data Service (ADDS)

Output produced by METARs form (1138 UTC 17 June 2019)
found at http://www.aviationweather.gov/metar/data/
 
Forecast for: ZSSS (SHANGHAI/HONGQIA, CN)
Text: TAF ZSSS 170909Z 1712/1812 16006MPS 6000 BKN015 TX25/1806Z TN22/1721Z
Forecast period: 1200 UTC 17 June 2019 to 1200 UTC 18 June 2019
Forecast type: FROM: standard forecast or significant change
Winds: from the SSE (160 degrees) at 14 MPH (12 knots; 6.2 m/s)
Visibility: 4 miles (6 km)
Ceiling: 1500 feet AGL
Clouds: broken clouds at 1500 feet AGL
Weather: no significant weather forecast for this period
Text: TEMPO 1722/1804 2000 SHRA BR BKN008 FEW030CB OVC040
Forecast period: 2200 UTC 17 June 2019 to 0400 UTC 18 June 2019
Forecast type: TEMPORARY: The following changes expected for less than half the time period
Visibility: 1.24 miles (2.00 km)
Ceiling: 800 feet AGL
Clouds: broken clouds at 800 feet AGL
few clouds at 3000 feet AGL
overcast cloud deck at 4000 feet AGL
Weather: SHRA BR  (rain showers, mist)
Text: TEMPO 1804/1808 2000 TSRA BR BKN005 FEW030CB OVC040
Forecast period: 0400 to 0800 UTC 18 June 2019
Forecast type: TEMPORARY: The following changes expected for less than half the time period
Visibility: 1.24 miles (2.00 km)
Ceiling: 500 feet AGL
Clouds: broken clouds at 500 feet AGL
few clouds at 3000 feet AGL
overcast cloud deck at 4000 feet AGL
Weather: TSRA BR  (rain associated with thunderstorm(s), mist)